Wetterdaten: aktuell Sonntag, 10.05.2026 23:48
Datum Zeit Temp. A. Feuchte A. Luftdruck Regen Wind Richtung Richtung Taupunkt Windchill
10.05.2026 23:48 15,6 °C 80 % 999,1 hPa 0,0 l/m² 0,1 km/h (0 Bft) SO 140 ° 12,2 °C 15,6 °C
10.05.2026 23:46 15,7 °C 79 % 999,1 hPa 0,7 l/m² 0,1 km/h (0 Bft) SO 140 ° 12,1 °C 15,7 °C
10.05.2026 23:45 15,7 °C 79 % 999,1 hPa 0,0 l/m² 0,4 km/h (0 Bft) SO±67.5° 130 ° 12,1 °C 15,7 °C
10.05.2026 23:43 15,7 °C 79 % 999,1 hPa 0,0 l/m² 0,1 km/h (0 Bft) N-NW 330 ° 12,1 °C 15,7 °C
10.05.2026 23:41 15,8 °C 78 % 999,1 hPa 0,0 l/m² 0,1 km/h (0 Bft) N-NW 330 ° 12,0 °C 15,8 °C
10.05.2026 23:39 15,9 °C 78 % 999,1 hPa 0,0 l/m² 4,5 km/h (1 Bft) O±67.5° 85 ° 12,1 °C 15,9 °C
10.05.2026 23:37 15,9 °C 78 % 999,1 hPa 0,0 l/m² 3,4 km/h (1 Bft) S-SO±22.5° 150 ° 12,1 °C 15,9 °C
10.05.2026 23:35 15,9 °C 77 % 999,1 hPa 0,4 l/m² 1,1 km/h (1 Bft) NW±67.5° 320 ° 11,9 °C 15,9 °C
10.05.2026 23:33 16,0 °C 77 % 999,1 hPa 0,0 l/m² 1,1 km/h (1 Bft) NW±67.5° 320 ° 12,0 °C 16,0 °C
10.05.2026 23:31 16,0 °C 77 % 999,1 hPa 0,0 l/m² 1,1 km/h (1 Bft) NW±67.5° 320 ° 12,0 °C 16,0 °C
10.05.2026 23:29 16,0 °C 76 % 999,1 hPa 0,4 l/m² 4,0 km/h (1 Bft) N±22.5° 350 ° 11,8 °C 16,0 °C
10.05.2026 23:27 16,2 °C 75 % 999,1 hPa 0,4 l/m² 2,2 km/h (1 Bft) N-NW±45° 340 ° 11,8 °C 16,2 °C
10.05.2026 23:25 16,2 °C 75 % 999,1 hPa 0,0 l/m² 2,2 km/h (1 Bft) N-NW±45° 340 ° 11,8 °C 16,2 °C
10.05.2026 23:23 16,3 °C 74 % 999,1 hPa 0,0 l/m² 0,4 km/h (0 Bft) NO±22.5° 45 ° 11,7 °C 16,3 °C
10.05.2026 23:21 16,5 °C 73 % 999,1 hPa 0,0 l/m² 3,7 km/h (1 Bft) N±67.5° 5 ° 11,6 °C 16,5 °C
10.05.2026 23:19 16,5 °C 73 % 999,1 hPa 0,0 l/m² 3,7 km/h (1 Bft) N±67.5° 5 ° 11,6 °C 16,5 °C
10.05.2026 23:17 16,6 °C 73 % 999,1 hPa 0,0 l/m² 4,9 km/h (1 Bft) N-NO±67.5° 25 ° 11,7 °C 16,6 °C
10.05.2026 23:15 16,8 °C 71 % 999,0 hPa 0,0 l/m² 0,8 km/h (0 Bft) O-SO±22.5° 115 ° 11,5 °C 16,8 °C
10.05.2026 23:13 16,8 °C 71 % 999,0 hPa 0,0 l/m² 3,9 km/h (1 Bft) SO 135 ° 11,5 °C 16,8 °C
10.05.2026 23:11 16,9 °C 70 % 999,0 hPa 0,0 l/m² 3,9 km/h (1 Bft) SO 135 ° 11,4 °C 16,9 °C
10.05.2026 23:08 17,0 °C 70 % 999,0 hPa 0,4 l/m² 8,3 km/h (2 Bft) O±67.5° 90 ° 11,5 °C 16,1 °C
10.05.2026 23:06 17,0 °C 70 % 999,0 hPa 0,4 l/m² 4,0 km/h (1 Bft) N-NO±45° 15 ° 11,5 °C 17,0 °C
10.05.2026 23:05 17,2 °C 69 % 999,0 hPa 0,0 l/m² 6,4 km/h (2 Bft) O-NO±67.5° 65 ° 11,5 °C 17,2 °C
10.05.2026 23:03 17,4 °C 68 % 999,0 hPa 0,0 l/m² 6,4 km/h (2 Bft) O-NO±67.5° 65 ° 11,4 °C 17,4 °C
10.05.2026 23:01 17,5 °C 67 % 999,0 hPa 0,0 l/m² 10,8 km/h (2 Bft) SO±67.5° 125 ° 11,3 °C 15,6 °C
10.05.2026 22:59 17,5 °C 67 % 999,0 hPa 0,0 l/m² 9,5 km/h (2 Bft) O-SO±67.5° 120 ° 11,3 °C 16,1 °C
10.05.2026 22:57 17,6 °C 66 % 999,0 hPa 0,0 l/m² 9,5 km/h (2 Bft) O-SO±67.5° 120 ° 11,2 °C 16,2 °C
10.05.2026 22:55 17,7 °C 66 % 999,0 hPa 0,0 l/m² 9,5 km/h (2 Bft) O-SO±67.5° 115 ° 11,3 °C 16,3 °C
10.05.2026 22:53 17,7 °C 66 % 999,0 hPa 0,0 l/m² 8,5 km/h (2 Bft) SO±45° 130 ° 11,3 °C 16,7 °C
10.05.2026 22:51 18,0 °C 63 % 999,0 hPa 0,0 l/m² 9,0 km/h (2 Bft) NO±67.5° 35 ° 10,8 °C 16,8 °C
10.05.2026 22:49 18,0 °C 63 % 999,0 hPa 0,0 l/m² 9,0 km/h (2 Bft) NO±67.5° 35 ° 10,8 °C 16,8 °C
10.05.2026 22:47 18,0 °C 63 % 999,0 hPa 0,0 l/m² 5,9 km/h (2 Bft) N-NO±67.5° 15 ° 10,8 °C 18,0 °C
10.05.2026 22:45 18,1 °C 62 % 999,0 hPa 0,0 l/m² 7,4 km/h (2 Bft) O-NO±67.5° 65 ° 10,7 °C 17,6 °C
10.05.2026 22:43 18,3 °C 60 % 999,0 hPa 0,0 l/m² 8,6 km/h (2 Bft) O±67.5° 95 ° 10,4 °C 17,3 °C
10.05.2026 22:41 18,3 °C 60 % 999,0 hPa 0,0 l/m² 8,6 km/h (2 Bft) O±67.5° 95 ° 10,4 °C 17,3 °C
10.05.2026 22:39 18,5 °C 59 % 999,0 hPa 0,0 l/m² 8,9 km/h (2 Bft) SO±45° 135 ° 10,3 °C 17,4 °C
10.05.2026 22:37 18,6 °C 57 % 999,0 hPa 0,0 l/m² 8,9 km/h (2 Bft) NO 50 ° 9,9 °C 17,5 °C
10.05.2026 22:35 18,6 °C 57 % 999,0 hPa 0,0 l/m² 8,9 km/h (2 Bft) NO 50 ° 9,9 °C 17,5 °C
10.05.2026 22:33 18,8 °C 56 % 999,0 hPa 0,0 l/m² 3,7 km/h (1 Bft) O±22.5° 95 ° 9,8 °C 18,8 °C
10.05.2026 22:31 19,0 °C 55 % 999,0 hPa 0,0 l/m² 9,7 km/h (2 Bft) O±45° 80 ° 9,8 °C 17,6 °C
10.05.2026 22:28 19,0 °C 55 % 999,0 hPa 0,0 l/m² 8,5 km/h (2 Bft) O±22.5° 100 ° 9,8 °C 18,1 °C
_ Min-Zeit 06:17 13:53 19:00 - 00:01 - - 18:51 06:17
Minimum _ 11,5 °C 20 % 997,7 hPa - 0,0 km/h (0 Bft) - - -0,4 °C 11,5 °C
_ Max-Zeit 15:05 23:48 00:39 23:46 16:37 - - 23:48 15:05
Maximum _ 26,6 °C 80 % 1008,2 hPa 0,7 l/m² 16,1 km/h
N-NW (3 Bft)
- - 12,2 °C 26,6 °C
Durchschnitt _ 18,7 °C 46 % 1002,9 hPa #2,5 l/m² 2,7 km/h (1 Bft) N - 5,5 °C 18,6 °C